createdAt,value
2019-05-11T00:02:26.832Z,82.25
2019-05-11T00:05:28.958Z,68.70
2019-05-11T00:08:30.412Z,72.53
2019-05-11T00:11:33.170Z,63.52
2019-05-11T00:14:34.458Z,75.52
2019-05-11T00:17:35.717Z,79.87
2019-05-11T00:20:36.999Z,82.42
2019-05-11T00:23:38.261Z,77.92
2019-05-11T00:26:39.525Z,71.60
2019-05-11T00:29:40.949Z,75.83
2019-05-11T00:32:42.217Z,83.58
2019-05-11T00:35:43.792Z,86.55
2019-05-11T00:38:45.050Z,81.00
2019-05-11T00:41:46.312Z,67.82
2019-05-11T00:44:47.575Z,60.83
2019-05-11T00:47:48.852Z,58.65
2019-05-11T00:50:50.126Z,56.68
2019-05-11T00:53:52.074Z,58.45
2019-05-11T00:56:53.511Z,59.83
2019-05-11T00:59:54.957Z,63.42
2019-05-11T01:02:56.739Z,58.45
2019-05-11T01:05:58.205Z,56.30
2019-05-11T01:08:59.485Z,54.98
2019-05-11T01:12:01.121Z,63.87
2019-05-11T01:15:02.481Z,66.30
2019-05-11T01:18:03.769Z,62.27
2019-05-11T01:21:05.013Z,55.12
2019-05-11T01:24:06.575Z,50.67
2019-05-11T01:27:08.246Z,54.58
2019-05-11T01:30:09.663Z,51.45
2019-05-11T01:33:10.913Z,54.98
2019-05-11T01:36:12.176Z,48.55
2019-05-11T01:39:13.628Z,49.83
2019-05-11T01:42:14.857Z,49.45
2019-05-11T01:45:16.314Z,64.97
2019-05-11T01:48:17.593Z,65.70
2019-05-11T01:51:18.893Z,46.18
2019-05-11T01:54:20.186Z,41.55
2019-05-11T01:57:22.043Z,44.55
2019-05-11T02:00:23.301Z,44.30
2019-05-11T02:03:24.854Z,43.92
2019-05-11T02:06:26.102Z,44.73
2019-05-11T02:09:27.573Z,41.42
2019-05-11T02:12:29.674Z,48.33
2019-05-11T02:15:31.041Z,44.05
2019-05-11T02:18:32.296Z,43.85
2019-05-11T02:21:34.735Z,43.40
2019-05-11T02:24:36.461Z,44.48
2019-05-11T02:27:37.915Z,46.58
2019-05-11T02:30:39.165Z,45.38
2019-05-11T02:33:40.610Z,43.38
2019-05-11T02:36:41.870Z,42.95
2019-05-11T02:39:43.325Z,42.88
2019-05-11T02:42:44.609Z,43.98
2019-05-11T02:45:45.891Z,42.50
2019-05-11T02:48:47.152Z,42.08
2019-05-11T02:51:48.917Z,44.20
2019-05-11T02:54:50.189Z,43.80
2019-05-11T02:57:51.466Z,41.02
2019-05-11T03:00:53.002Z,40.95
2019-05-11T03:03:54.258Z,41.28
2019-05-11T03:06:55.697Z,41.75
2019-05-11T03:09:57.060Z,45.58
2019-05-11T03:12:59.948Z,43.20
2019-05-11T03:16:01.478Z,44.30
2019-05-11T03:19:02.734Z,41.35
2019-05-11T03:22:04.210Z,40.78
2019-05-11T03:25:05.572Z,42.23
2019-05-11T03:28:06.956Z,41.02
2019-05-11T03:31:08.702Z,42.75
2019-05-11T03:34:09.958Z,41.80
2019-05-11T03:37:11.435Z,42.30
2019-05-11T03:40:12.669Z,41.83
2019-05-11T03:43:14.566Z,39.48
2019-05-11T03:46:15.833Z,46.33
2019-05-11T03:49:17.279Z,43.70
2019-05-11T03:52:18.559Z,47.03
2019-05-11T03:55:20.039Z,76.35
2019-05-11T03:58:25.559Z,82.10
2019-05-11T04:01:24.532Z,58.38
2019-05-11T04:04:25.822Z,70.97
2019-05-11T04:07:27.266Z,62.48
2019-05-11T04:10:28.537Z,58.52
2019-05-11T04:13:30.702Z,56.30
2019-05-11T04:16:32.017Z,50.50
2019-05-11T04:19:33.286Z,48.52
2019-05-11T04:22:34.902Z,46.98
2019-05-11T04:25:36.236Z,44.95
2019-05-11T04:28:37.688Z,43.65
2019-05-11T04:31:38.934Z,43.42
2019-05-11T04:34:40.407Z,41.60
2019-05-11T04:37:41.681Z,40.95
2019-05-11T04:40:43.037Z,37.42
2019-05-11T04:43:44.414Z,33.02
2019-05-11T04:46:45.659Z,34.00
2019-05-11T04:49:47.116Z,33.10
2019-05-11T04:52:48.391Z,34.25
2019-05-11T04:55:49.877Z,32.75
2019-05-11T04:58:51.543Z,34.35
2019-05-11T05:01:52.989Z,32.63
2019-05-11T05:04:54.261Z,32.53
2019-05-11T05:08:08.479Z,32.98
2019-05-11T05:11:00.792Z,32.40
2019-05-11T05:14:08.038Z,32.23
2019-05-11T05:21:22.046Z,31.35
2019-05-11T05:24:24.130Z,31.37
2019-05-11T05:27:25.705Z,31.07
2019-05-11T05:30:26.913Z,30.75
2019-05-11T05:33:28.665Z,30.95
2019-05-11T05:36:29.913Z,31.30
2019-05-11T05:39:31.224Z,31.37
2019-05-11T05:42:32.923Z,29.75
2019-05-11T05:45:34.281Z,31.50
2019-05-11T05:48:35.526Z,30.23
2019-05-11T05:51:37.007Z,31.85
2019-05-11T05:54:38.514Z,32.48
2019-05-11T05:57:41.321Z,33.88
2019-05-11T06:00:42.561Z,28.85
2019-05-11T06:03:44.046Z,28.47
2019-05-11T06:06:46.185Z,28.60
2019-05-11T06:09:47.458Z,27.52
2019-05-11T06:12:49.114Z,25.88
2019-05-11T06:15:50.394Z,26.05
2019-05-11T06:18:51.762Z,25.90
2019-05-11T06:21:53.089Z,26.55
2019-05-11T06:24:54.387Z,27.32
2019-05-11T06:27:55.730Z,27.85
2019-05-11T06:30:57.241Z,28.57
2019-05-11T06:33:58.546Z,30.50
2019-05-11T06:37:00.002Z,28.38
2019-05-11T06:40:01.273Z,26.33
2019-05-11T06:43:02.937Z,27.37
2019-05-11T06:46:04.306Z,29.05
2019-05-11T06:49:05.793Z,28.77
2019-05-11T06:52:07.094Z,28.62
2019-05-11T06:55:08.666Z,27.32
2019-05-11T06:58:10.042Z,27.70
2019-05-11T07:01:11.505Z,27.07
2019-05-11T07:04:12.899Z,27.10
2019-05-11T07:07:14.394Z,27.17
2019-05-11T07:10:15.787Z,26.52
2019-05-11T07:13:18.106Z,25.70
2019-05-11T07:16:20.206Z,25.85
2019-05-11T07:19:22.172Z,27.30
2019-05-11T07:22:23.815Z,26.87
2019-05-11T07:25:25.837Z,26.70
2019-05-11T07:28:27.078Z,26.40
2019-05-11T07:31:28.602Z,26.50
2019-05-11T07:34:29.961Z,26.52
2019-05-11T07:37:31.443Z,26.33
2019-05-11T07:40:32.695Z,24.55
2019-05-11T07:43:34.321Z,24.87
2019-05-11T07:46:37.634Z,22.30
2019-05-11T07:49:39.045Z,24.95
2019-05-11T07:52:40.485Z,24.43
2019-05-11T07:55:42.361Z,26.87
2019-05-11T07:58:44.057Z,29.42
2019-05-11T08:01:47.746Z,30.30
2019-05-11T08:04:48.895Z,27.45
2019-05-11T08:07:50.365Z,26.02
2019-05-11T08:10:51.802Z,24.25
2019-05-11T08:13:53.919Z,22.48
2019-05-11T08:24:28.430Z,24.00
2019-05-11T08:27:29.870Z,23.75
2019-05-11T08:30:31.241Z,21.85
2019-05-11T08:33:32.501Z,21.68
2019-05-11T08:36:34.108Z,21.75
2019-05-11T08:39:37.811Z,20.68
2019-05-11T08:42:38.538Z,20.25
2019-05-11T08:45:39.956Z,19.12
2019-05-11T08:48:41.413Z,18.05
2019-05-11T08:51:42.942Z,15.13
2019-05-11T08:54:44.413Z,15.40
2019-05-11T08:57:47.807Z,15.45
2019-05-11T09:00:49.029Z,14.95
2019-05-11T09:03:50.680Z,15.05
2019-05-11T09:06:52.145Z,15.75
2019-05-11T09:09:53.418Z,16.67
2019-05-11T09:12:54.836Z,15.83
2019-05-11T09:15:56.101Z,17.07
2019-05-11T09:18:58.137Z,17.02
2019-05-11T09:22:03.057Z,17.02
2019-05-11T09:25:05.438Z,15.95
2019-05-11T09:28:08.542Z,15.28
2019-05-11T09:31:09.873Z,17.80
2019-05-11T09:34:11.824Z,18.52
2019-05-11T09:37:13.118Z,16.97
2019-05-11T09:40:14.701Z,17.40
2019-05-11T09:43:17.863Z,15.88
2019-05-11T09:46:19.230Z,13.43
2019-05-11T09:49:20.505Z,15.53
2019-05-11T09:52:22.262Z,14.35
2019-05-11T09:55:24.186Z,13.90
2019-05-11T09:58:27.929Z,12.73
2019-05-11T10:01:29.629Z,11.20
2019-05-11T10:04:31.452Z,10.43
2019-05-11T10:07:34.428Z,9.88
2019-05-11T10:10:38.116Z,9.15
2019-05-11T10:13:39.214Z,8.88
2019-05-11T10:16:40.785Z,9.78
2019-05-11T10:19:42.099Z,9.93
2019-05-11T10:22:43.614Z,9.18
2019-05-11T10:30:02.666Z,7.92
2019-05-11T10:33:10.164Z,6.92
2019-05-11T10:36:12.881Z,7.30
2019-05-11T10:39:14.366Z,6.75
2019-05-11T10:42:17.866Z,6.40
2019-05-11T10:45:19.792Z,5.97
2019-05-11T10:48:21.267Z,5.90
2019-05-11T10:51:22.525Z,7.95
2019-05-11T10:54:24.196Z,8.38
2019-05-11T10:57:25.474Z,7.22
2019-05-11T11:00:28.313Z,6.40
2019-05-11T11:03:29.687Z,6.65
2019-05-11T11:06:31.886Z,6.47
2019-05-11T11:09:33.819Z,6.58
2019-05-11T11:12:38.309Z,6.12
2019-05-11T11:15:38.989Z,7.47
2019-05-11T11:18:40.671Z,6.40
2019-05-11T11:21:42.014Z,6.62
2019-05-11T11:24:44.286Z,6.55
2019-05-11T11:27:45.671Z,5.58
2019-05-11T11:30:48.067Z,4.70
2019-05-11T11:33:49.569Z,3.90
2019-05-11T11:36:51.830Z,4.30
2019-05-11T11:39:53.541Z,3.70
2019-05-11T11:42:54.992Z,3.85
2019-05-11T11:45:58.028Z,3.60
2019-05-11T11:48:59.513Z,2.95
2019-05-11T11:52:01.708Z,3.00
2019-05-11T11:55:08.107Z,3.45
2019-05-11T11:58:10.158Z,3.17
2019-05-11T12:01:11.686Z,3.37
2019-05-11T12:04:15.226Z,3.50
2019-05-11T12:07:17.981Z,5.00
2019-05-11T12:10:19.416Z,3.83
2019-05-11T12:13:20.998Z,3.00
2019-05-11T12:16:22.375Z,3.30
2019-05-11T12:19:23.837Z,3.33
2019-05-11T12:22:25.099Z,2.67
2019-05-11T12:25:27.738Z,3.20
2019-05-11T12:28:29.249Z,3.67
2019-05-11T12:31:32.581Z,3.37
2019-05-11T12:34:34.760Z,4.40
2019-05-11T12:37:37.717Z,3.60
2019-05-11T12:40:39.197Z,3.47
2019-05-11T12:43:40.666Z,4.10
2019-05-11T12:46:41.963Z,3.95
2019-05-11T12:49:43.624Z,4.00
2019-05-11T12:52:47.550Z,4.37
2019-05-11T12:55:48.600Z,4.25
2019-05-11T12:58:50.119Z,5.35
2019-05-11T13:01:51.400Z,3.60
2019-05-11T13:04:52.995Z,3.62
2019-05-11T13:07:55.531Z,4.28
2019-05-11T13:10:58.455Z,4.12
2019-05-11T13:14:00.553Z,4.10
2019-05-11T13:17:03.021Z,3.75
2019-05-11T13:20:05.408Z,3.80
2019-05-11T13:23:10.226Z,3.95
2019-05-11T13:26:13.509Z,3.70
2019-05-11T13:29:17.986Z,3.80
2019-05-11T13:32:25.127Z,3.75
2019-05-11T13:35:28.500Z,3.62
2019-05-11T13:38:30.656Z,3.87
2019-05-11T13:41:32.157Z,3.67
2019-05-11T13:44:34.447Z,3.60
2019-05-11T13:47:49.303Z,3.40
2019-05-11T13:50:39.991Z,3.77
2019-05-11T13:53:41.248Z,3.37
2019-05-11T13:56:42.823Z,3.58
2019-05-11T13:59:45.137Z,5.80
2019-05-11T14:02:48.587Z,4.50
2019-05-11T14:27:13.662Z,4.70
2019-05-11T14:30:16.084Z,3.87
2019-05-11T14:33:18.012Z,3.70
2019-05-11T14:36:20.039Z,3.40
2019-05-11T14:39:23.157Z,3.35
2019-05-11T14:42:25.964Z,2.87
2019-05-11T14:45:28.881Z,2.65
2019-05-11T14:48:32.119Z,2.42
2019-05-11T14:51:34.229Z,2.45
2019-05-11T15:06:31.366Z,5.40
2019-05-11T15:09:32.625Z,5.62
2019-05-11T15:12:34.246Z,7.17
2019-05-11T15:15:35.983Z,8.53
2019-05-11T15:18:41.873Z,8.35
2019-05-11T15:21:42.196Z,11.15
2019-05-11T15:24:43.501Z,8.10
2019-05-11T15:27:44.977Z,6.58
2019-05-11T15:30:48.380Z,5.05
2019-05-11T15:33:50.218Z,5.05
2019-05-11T15:36:52.133Z,4.92
2019-05-11T15:39:55.498Z,5.33
2019-05-11T15:42:58.604Z,5.80
2019-05-11T15:46:00.212Z,5.55
2019-05-11T15:49:03.408Z,4.97
2019-05-11T15:52:04.716Z,5.20
2019-05-11T15:55:08.129Z,5.33
2019-05-11T15:58:11.331Z,6.33
2019-05-11T16:01:13.154Z,6.80
2019-05-11T16:04:17.983Z,6.65
2019-05-11T16:07:19.841Z,5.45
2019-05-11T16:10:21.105Z,3.87
2019-05-11T16:13:22.744Z,3.50
2019-05-11T16:16:24.341Z,3.50
2019-05-11T16:19:28.146Z,3.35
2019-05-11T16:22:30.104Z,3.37
2019-05-11T16:25:31.549Z,4.75
2019-05-11T16:28:33.300Z,4.75
2019-05-11T16:31:34.518Z,4.80
2019-05-11T16:34:38.056Z,4.25
2019-05-11T16:37:39.282Z,5.08
2019-05-11T16:40:41.190Z,8.43
2019-05-11T16:43:42.437Z,9.70
2019-05-11T16:46:43.993Z,8.25
2019-05-11T16:49:45.250Z,7.95
2019-05-11T16:52:48.177Z,9.45
2019-05-11T16:55:50.401Z,8.65
2019-05-11T16:58:54.840Z,7.60
2019-05-11T17:01:58.646Z,8.65
2019-05-11T17:05:00.673Z,6.78
2019-05-11T17:08:03.251Z,6.90
2019-05-11T17:11:04.594Z,7.15
2019-05-11T17:14:08.180Z,7.60
2019-05-11T17:17:09.660Z,6.95
2019-05-11T17:20:10.953Z,6.70
2019-05-11T17:23:12.550Z,7.62
2019-05-11T17:26:13.820Z,7.90
2019-05-11T17:29:18.404Z,7.75
2019-05-11T17:32:20.841Z,8.33
2019-05-11T17:35:23.085Z,8.13
2019-05-11T17:38:24.898Z,9.23
2019-05-11T17:41:27.918Z,10.30
2019-05-11T17:44:30.094Z,11.10
2019-05-11T17:47:33.268Z,11.57
2019-05-11T17:50:35.415Z,12.07
2019-05-11T17:53:37.804Z,16.42
2019-05-11T17:56:39.559Z,15.20
2019-05-11T17:59:41.262Z,21.25
2019-05-11T18:02:42.802Z,23.42
2019-05-11T18:05:44.665Z,21.52
2019-05-11T18:08:47.884Z,19.92
2019-05-11T18:11:50.249Z,20.48
2019-05-11T18:14:51.737Z,19.67
2019-05-11T18:17:58.732Z,20.40
2019-05-11T18:21:02.200Z,21.42
2019-05-11T18:24:05.620Z,38.40
2019-05-11T18:27:09.544Z,34.65
2019-05-11T18:30:11.399Z,28.42
2019-05-11T18:33:14.381Z,26.00
2019-05-11T18:36:18.352Z,26.93
2019-05-11T18:39:20.848Z,25.50
2019-05-11T18:42:23.110Z,27.25
2019-05-11T18:45:25.097Z,28.55
2019-05-11T18:48:28.988Z,29.80
2019-05-11T18:51:31.720Z,33.42
2019-05-11T18:54:34.104Z,33.10
2019-05-11T18:57:38.420Z,36.80
2019-05-11T19:00:40.367Z,34.92
2019-05-11T19:03:41.793Z,32.93
2019-05-11T19:06:44.346Z,35.10
2019-05-11T19:09:48.410Z,31.30
2019-05-11T19:12:50.695Z,28.20
2019-05-11T19:15:52.672Z,30.85
2019-05-11T19:18:55.377Z,34.40
2019-05-11T19:21:58.709Z,34.53
2019-05-11T19:25:00.574Z,35.65
2019-05-11T19:28:03.340Z,38.58
2019-05-11T19:31:10.864Z,42.65
2019-05-11T19:34:10.339Z,42.95
2019-05-11T19:37:12.479Z,35.55
2019-05-11T19:40:14.003Z,42.15
2019-05-11T19:43:15.269Z,39.95
2019-05-11T19:46:18.375Z,37.85
2019-05-11T19:49:19.917Z,35.10
2019-05-11T19:52:22.593Z,35.45
2019-05-11T19:55:28.343Z,36.60
2019-05-11T19:58:29.336Z,37.78
2019-05-11T20:01:31.830Z,35.95
2019-05-11T20:04:33.310Z,39.70
2019-05-11T20:07:37.671Z,45.83
2019-05-11T20:10:38.644Z,49.40
2019-05-11T20:13:42.890Z,44.38
2019-05-11T20:16:44.510Z,41.83
2019-05-11T20:19:49.053Z,35.68
2019-05-11T20:22:50.540Z,42.48
2019-05-11T20:25:51.816Z,37.67
2019-05-11T20:28:54.008Z,43.17
2019-05-11T20:31:57.854Z,47.62
2019-05-11T20:35:00.045Z,47.13
2019-05-11T20:38:01.685Z,43.40
2019-05-11T20:41:03.245Z,44.30
2019-05-11T20:44:04.573Z,46.83
2019-05-11T20:47:06.626Z,50.35
2019-05-11T20:50:08.873Z,35.92
2019-05-11T20:53:11.551Z,42.53
2019-05-11T20:56:13.647Z,42.83
2019-05-11T20:59:18.148Z,45.33
2019-05-11T21:02:19.335Z,42.25
2019-05-11T21:05:22.664Z,34.25
2019-05-11T21:08:25.094Z,34.03
2019-05-11T21:11:30.905Z,42.27
2019-05-11T21:14:32.457Z,45.38
2019-05-11T21:17:34.171Z,43.48
2019-05-11T21:20:38.064Z,39.98
2019-05-11T21:23:40.709Z,37.88
2019-05-11T21:26:42.321Z,35.03
2019-05-11T21:29:44.287Z,32.05
2019-05-11T21:32:47.779Z,34.98
2019-05-11T21:35:49.217Z,33.00
2019-05-11T21:38:51.296Z,30.62
2019-05-11T21:41:53.369Z,33.48
2019-05-11T21:44:55.256Z,37.95
2019-05-11T21:47:57.944Z,40.33
2019-05-11T21:50:59.955Z,47.23
2019-05-11T21:54:03.582Z,48.78
2019-05-11T21:57:05.109Z,50.28
2019-05-11T22:00:08.861Z,50.17
2019-05-11T22:03:10.538Z,43.63
2019-05-11T22:06:12.876Z,55.15
2019-05-11T22:09:14.187Z,54.67
2019-05-11T22:12:15.862Z,55.15
2019-05-11T22:15:19.050Z,55.43
2019-05-11T22:18:30.256Z,51.18
2019-05-11T22:21:23.578Z,51.37
2019-05-11T22:24:24.917Z,50.17
2019-05-11T22:27:27.815Z,49.93
2019-05-11T22:30:29.678Z,49.83
2019-05-11T22:33:31.094Z,35.85
2019-05-11T22:36:32.384Z,34.10
2019-05-11T22:39:34.284Z,33.63
2019-05-11T22:42:35.714Z,32.30
2019-05-11T22:45:38.324Z,31.97
2019-05-11T22:48:39.943Z,32.45
2019-05-11T22:51:41.413Z,31.57
2019-05-11T22:54:42.771Z,40.63
2019-05-11T22:57:44.046Z,43.52
2019-05-11T23:00:45.299Z,44.90
2019-05-11T23:03:47.550Z,46.05
2019-05-11T23:06:50.317Z,44.18
2019-05-11T23:09:51.601Z,43.20
2019-05-11T23:12:52.841Z,32.15
2019-05-11T23:15:54.628Z,30.32
2019-05-11T23:18:55.877Z,31.02
2019-05-11T23:21:58.718Z,31.37
2019-05-11T23:25:00.126Z,30.95
2019-05-11T23:28:01.399Z,32.65
2019-05-11T23:31:02.876Z,29.72
2019-05-11T23:34:04.160Z,35.17
2019-05-11T23:37:07.855Z,34.75
2019-05-11T23:40:09.418Z,39.27
2019-05-11T23:43:10.922Z,44.27
2019-05-11T23:46:12.211Z,54.33
2019-05-11T23:49:13.485Z,40.33
2019-05-11T23:52:14.738Z,56.48
2019-05-11T23:55:18.719Z,55.65
2019-05-11T23:58:19.560Z,51.18
